This is the latest recevied weather packets stored in our database for station/object DH0DM-13. If no packets are shown the sender has not sent any weather packets the latest 1 day(s).
| Time | Temp. | Humidity | Pressure | Rain* | Wind** | Luminosity | Snow |
|---|---|---|---|---|---|---|---|
| 1778107825 | 11.11° C | 90% | 980.9 hPa | 0 mm | 0.45 m/s, 325° | - | - |
| 1778107224 | 11.11° C | 90% | 981 hPa | 0 mm | 0.45 m/s, 325° | - | - |
| 1778103018 | 11.67° C | 89% | 980.9 hPa | 6.1 mm | 0.89 m/s, 40° | - | - |
| 1778102417 | 11.67° C | 89% | 980.5 hPa | 6.1 mm | 0 m/s | - | - |
| 1778097610 | 12.22° C | 87% | 980.3 hPa | 6.1 mm | 0 m/s | - | - |
| 1778092803 | 13.89° C | 83% | 979.5 hPa | 6.1 mm | 1.79 m/s, 311° | - | - |
| 1778092202 | 14.44° C | 81% | 979.6 hPa | 6.1 mm | 0.89 m/s, 330° | - | - |
| 1778091601 | 14.44° C | 81% | 979.4 hPa | 6.1 mm | 0.89 m/s, 20° | - | - |
| 1778091000 | 15° C | 80% | 979.4 hPa | 6.1 mm | 0 m/s | - | - |
| 1778089798 | 15.56° C | 78% | 979.3 hPa | 6.1 mm | 0 m/s | - | - |
| 1778089197 | 16.11° C | 76% | 979 hPa | 6.1 mm | 2.68 m/s, 331° | - | - |
| 1778087995 | 16.67° C | 73% | 978.9 hPa | 6.1 mm | 4.02 m/s, 46° | - | - |
| 1778086793 | 17.78° C | 72% | 978.6 hPa | 6.1 mm | 2.68 m/s, 301° | - | - |
| 1778085591 | 18.33° C | 68% | 978.6 hPa | 6.1 mm | 4.92 m/s, 285° | - | - |
| 1778083788 | 20° C | 62% | 978.7 hPa | 6.1 mm | 1.34 m/s, 88° | - | - |
| 1778083187 | 20° C | 61% | 978.5 hPa | 6.1 mm | 1.34 m/s, 271° | - | - |
| 1778078981 | 20.56° C | 61% | 978.7 hPa | 6.1 mm | 1.34 m/s, 287° | - | - |
| 1778078380 | 20.56° C | 60% | 978.8 hPa | 6.1 mm | 2.24 m/s, 343° | - | - |
| 1778076577 | 19.44° C | 63% | 979.2 hPa | 6.1 mm | 2.68 m/s, 304° | - | - |
| 1778074174 | 19.44° C | 63% | 979.2 hPa | 6.1 mm | 4.02 m/s, 316° | - | - |
| 1778073573 | 19.44° C | 65% | 979.3 hPa | 6.1 mm | 0.89 m/s, 253° | - | - |
| 1778072972 | 19.44° C | 65% | 979.3 hPa | 6.1 mm | 2.24 m/s, 285° | - | - |
| 1778072371 | 18.89° C | 66% | 979.4 hPa | 6.1 mm | 2.24 m/s, 284° | - | - |
| 1778071770 | 18.89° C | 67% | 979.5 hPa | 6.1 mm | 5.36 m/s, 242° | - | - |
| 1778071169 | 18.33° C | 68% | 979.4 hPa | 6.1 mm | 2.24 m/s, 285° | - | - |
* Rain since midnight (hover to see other rain measurements)
** Current wind speed in m/s (hover to see current wind gust speed)